createdAt,value
2019-03-25T00:02:30.687Z,87.89
2019-03-25T00:05:39.494Z,88.33
2019-03-25T00:08:48.021Z,87.38
2019-03-25T00:11:56.222Z,88.74
2019-03-25T00:15:05.072Z,89.51
2019-03-25T00:18:13.595Z,90.49
2019-03-25T00:21:21.835Z,90.69
2019-03-25T00:24:38.135Z,90.70
2019-03-25T00:27:40.366Z,90.65
2019-03-25T00:30:48.494Z,90.66
2019-03-25T00:33:56.563Z,89.83
2019-03-25T00:37:04.860Z,90.49
2019-03-25T00:40:13.248Z,91.13
2019-03-25T00:43:21.644Z,91.91
2019-03-25T00:46:30.019Z,91.74
2019-03-25T00:49:38.368Z,91.66
2019-03-25T00:52:46.693Z,90.99
2019-03-25T00:55:55.211Z,91.06
2019-03-25T00:59:03.727Z,90.46
2019-03-25T01:02:12.274Z,89.89
2019-03-25T01:05:22.014Z,90.72
2019-03-25T01:08:30.114Z,91.49
2019-03-25T01:11:48.624Z,92.42
2019-03-25T01:14:48.432Z,92.23
2019-03-25T01:17:56.524Z,91.62
2019-03-25T01:21:05.108Z,91.82
2019-03-25T01:24:13.297Z,91.41
2019-03-25T01:27:21.493Z,90.78
2019-03-25T01:30:29.676Z,90.61
2019-03-25T01:33:37.694Z,91.54
2019-03-25T01:36:45.889Z,91.43
2019-03-25T01:39:54.236Z,90.74
2019-03-25T01:43:02.432Z,91.18
2019-03-25T01:46:10.736Z,90.81
2019-03-25T01:49:18.921Z,90.39
2019-03-25T01:52:27.489Z,90.65
2019-03-25T01:55:35.924Z,91.26
2019-03-25T01:58:44.369Z,91.94
2019-03-25T02:01:52.470Z,91.17
2019-03-25T02:05:01.096Z,90.96
2019-03-25T02:08:09.194Z,90.74
2019-03-25T02:11:17.598Z,91.08
2019-03-25T02:14:26.015Z,91.33
2019-03-25T02:17:34.203Z,91.89
2019-03-25T02:20:42.657Z,91.93
2019-03-25T02:23:50.846Z,92.10
2019-03-25T02:26:59.602Z,91.80
2019-03-25T02:30:08.977Z,91.39
2019-03-25T02:33:17.229Z,90.78
2019-03-25T02:36:25.210Z,91.75
2019-03-25T02:39:33.291Z,91.25
2019-03-25T02:42:41.511Z,91.34
2019-03-25T02:45:49.599Z,91.28
2019-03-25T02:48:57.725Z,91.44
2019-03-25T02:52:06.233Z,91.09
2019-03-25T02:55:14.425Z,92.16
2019-03-25T02:58:22.849Z,91.42
2019-03-25T03:01:31.812Z,91.43
2019-03-25T03:04:40.615Z,91.15
2019-03-25T03:07:49.228Z,91.35
2019-03-25T03:10:57.843Z,91.03
2019-03-25T03:14:06.283Z,91.19
2019-03-25T03:17:14.360Z,91.89
2019-03-25T03:20:22.669Z,92.55
2019-03-25T03:23:31.356Z,92.93
2019-03-25T03:26:39.551Z,92.90
2019-03-25T03:29:48.169Z,93.96
2019-03-25T03:32:56.267Z,94.44
2019-03-25T03:36:04.554Z,94.69
2019-03-25T03:39:13.001Z,94.96
2019-03-25T03:42:21.343Z,95.57
2019-03-25T03:45:29.588Z,96.01
2019-03-25T03:48:37.779Z,96.38
2019-03-25T03:51:46.528Z,97.47
2019-03-25T03:54:54.945Z,98.01
2019-03-25T03:58:04.090Z,98.41
2019-03-25T04:01:13.047Z,99.26
2019-03-25T04:04:21.378Z,99.24
2019-03-25T04:07:29.954Z,99.44
2019-03-25T04:10:38.708Z,99.59
2019-03-25T04:13:46.793Z,99.83
2019-03-25T04:16:55.013Z,99.33
2019-03-25T04:20:03.963Z,99.58
2019-03-25T04:23:12.287Z,99.16
2019-03-25T04:26:28.410Z,98.82
2019-03-25T04:29:30.946Z,98.11
2019-03-25T04:32:39.404Z,98.67
2019-03-25T04:35:48.260Z,98.57
2019-03-25T04:38:57.590Z,98.49
2019-03-25T04:42:06.330Z,98.67
2019-03-25T04:45:16.387Z,99.18
2019-03-25T04:48:38.559Z,99.32
2019-03-25T04:51:48.478Z,99.67
2019-03-25T04:54:56.479Z,99.50
2019-03-25T04:58:04.943Z,99.86
2019-03-25T05:01:13.597Z,99.94
2019-03-25T05:04:21.816Z,99.47
2019-03-25T05:07:29.933Z,99.57
2019-03-25T05:10:40.073Z,99.68
2019-03-25T05:13:48.261Z,99.63
2019-03-25T05:16:56.447Z,99.56
2019-03-25T05:20:06.531Z,99.80
2019-03-25T05:23:14.954Z,99.90
2019-03-25T05:26:23.674Z,99.74
2019-03-25T05:29:32.074Z,99.79
2019-03-25T05:32:40.363Z,99.74
2019-03-25T05:35:48.930Z,100.00
2019-03-25T05:38:57.228Z,100.00
2019-03-25T05:42:05.662Z,100.00
2019-03-25T05:45:14.010Z,100.00
2019-03-25T05:48:22.596Z,100.00
2019-03-25T05:51:30.588Z,100.00
2019-03-25T05:54:38.622Z,99.55
2019-03-25T05:57:47.118Z,98.55
2019-03-25T06:00:55.631Z,97.96
2019-03-25T06:04:04.309Z,97.49
2019-03-25T06:07:12.502Z,97.34
2019-03-25T06:10:21.027Z,96.73
2019-03-25T06:13:29.548Z,96.31
2019-03-25T06:16:37.650Z,96.20
2019-03-25T06:19:45.860Z,94.86
2019-03-25T06:22:53.829Z,93.86
2019-03-25T06:26:02.478Z,93.99
2019-03-25T06:29:11.207Z,93.69
2019-03-25T06:32:19.735Z,92.69
2019-03-25T06:35:28.130Z,88.85
2019-03-25T06:38:36.304Z,89.70
2019-03-25T06:41:44.507Z,88.26
2019-03-25T06:44:53.466Z,88.12
2019-03-25T06:48:01.749Z,87.51
2019-03-25T06:51:10.237Z,89.01
2019-03-25T06:54:18.377Z,87.64
2019-03-25T06:57:26.645Z,89.24
2019-03-25T07:00:35.183Z,88.38
2019-03-25T07:03:43.937Z,86.17
2019-03-25T07:06:52.324Z,82.80
2019-03-25T07:10:00.510Z,82.34
2019-03-25T07:13:08.952Z,78.25
2019-03-25T07:16:17.690Z,78.86
2019-03-25T07:19:25.990Z,76.50
2019-03-25T07:22:34.919Z,76.04
2019-03-25T07:28:59.405Z,75.87
2019-03-25T07:32:09.060Z,74.97
2019-03-25T07:35:17.393Z,74.20
2019-03-25T07:38:25.630Z,73.72
2019-03-25T07:41:33.733Z,75.48
2019-03-25T07:44:42.108Z,73.92
2019-03-25T07:47:51.003Z,73.06
2019-03-25T07:50:59.238Z,73.99
2019-03-25T07:54:08.058Z,74.69
2019-03-25T07:57:16.358Z,74.50
2019-03-25T08:00:24.916Z,75.11
2019-03-25T08:03:33.184Z,74.67
2019-03-25T08:06:41.629Z,74.27
2019-03-25T08:09:49.811Z,73.79
2019-03-25T08:12:58.540Z,72.44
2019-03-25T08:16:07.534Z,73.30
2019-03-25T08:19:16.319Z,73.50
2019-03-25T08:22:24.421Z,72.16
2019-03-25T08:25:33.046Z,73.54
2019-03-25T08:28:41.154Z,74.14
2019-03-25T08:31:49.511Z,73.31
2019-03-25T08:34:57.644Z,71.37
2019-03-25T08:38:06.671Z,70.90
2019-03-25T08:41:15.137Z,70.66
2019-03-25T08:44:23.622Z,70.07
2019-03-25T08:47:32.173Z,70.46
2019-03-25T08:50:40.513Z,71.29
2019-03-25T08:53:48.795Z,69.40
2019-03-25T08:56:57.124Z,69.18
2019-03-25T09:00:06.384Z,68.73
2019-03-25T09:03:14.814Z,68.03
2019-03-25T09:06:23.186Z,67.40
2019-03-25T09:09:31.521Z,66.00
2019-03-25T09:12:40.336Z,66.60
2019-03-25T09:15:48.878Z,66.57
2019-03-25T09:18:57.096Z,65.34
2019-03-25T09:22:06.776Z,64.64
2019-03-25T09:25:15.462Z,64.46
2019-03-25T09:28:24.786Z,65.63
2019-03-25T09:31:36.955Z,68.15
2019-03-25T09:34:44.416Z,68.27
2019-03-25T09:37:53.229Z,69.70
2019-03-25T09:41:01.606Z,68.02
2019-03-25T09:44:09.837Z,67.03
2019-03-25T09:47:18.197Z,67.65
2019-03-25T09:50:26.940Z,68.26
2019-03-25T09:53:35.261Z,67.27
2019-03-25T09:56:43.486Z,66.20
2019-03-25T09:59:51.858Z,66.07
2019-03-25T10:03:00.489Z,67.27
2019-03-25T10:06:08.923Z,66.92
2019-03-25T10:09:17.073Z,67.44
2019-03-25T10:12:25.276Z,66.90
2019-03-25T10:15:33.490Z,64.83
2019-03-25T10:18:41.923Z,64.32
2019-03-25T10:21:50.261Z,64.50
2019-03-25T10:24:58.528Z,62.40
2019-03-25T10:28:07.981Z,63.56
2019-03-25T10:31:17.537Z,62.43
2019-03-25T10:34:25.904Z,61.04
2019-03-25T10:37:34.454Z,62.54
2019-03-25T10:40:42.375Z,61.83
2019-03-25T10:43:50.613Z,60.83
2019-03-25T10:46:58.815Z,61.86
2019-03-25T10:50:09.028Z,60.97
2019-03-25T10:53:17.320Z,55.84
2019-03-25T10:56:26.456Z,55.57
2019-03-25T10:59:34.647Z,54.56
2019-03-25T11:02:43.444Z,52.28
2019-03-25T11:05:51.955Z,51.32
2019-03-25T11:09:00.234Z,49.45
2019-03-25T11:12:08.747Z,50.95
2019-03-25T11:15:18.232Z,51.40
2019-03-25T11:18:26.512Z,50.21
2019-03-25T11:21:34.430Z,50.14
2019-03-25T11:24:43.861Z,50.69
2019-03-25T11:27:54.525Z,51.32
2019-03-25T11:31:02.811Z,52.60
2019-03-25T11:34:11.501Z,52.60
2019-03-25T11:37:20.106Z,51.71
2019-03-25T11:40:28.833Z,52.18
2019-03-25T11:43:37.580Z,51.54
2019-03-25T11:46:46.103Z,50.62
2019-03-25T11:49:54.518Z,52.88
2019-03-25T11:53:02.808Z,50.27
2019-03-25T11:56:11.146Z,50.29
2019-03-25T11:59:19.478Z,49.29
2019-03-25T12:02:28.189Z,48.85
2019-03-25T12:05:36.533Z,47.50
2019-03-25T12:08:44.860Z,47.43
2019-03-25T12:11:53.298Z,46.86
2019-03-25T12:15:01.818Z,49.11
2019-03-25T12:18:10.498Z,50.72
2019-03-25T12:21:19.002Z,50.83
2019-03-25T12:24:27.638Z,51.60
2019-03-25T12:27:36.413Z,49.51
2019-03-25T12:30:44.856Z,49.98
2019-03-25T12:33:53.028Z,50.99
2019-03-25T12:37:01.220Z,52.02
2019-03-25T12:40:09.956Z,52.97
2019-03-25T12:43:18.495Z,52.36
2019-03-25T12:46:26.690Z,53.90
2019-03-25T12:49:35.090Z,53.35
2019-03-25T12:52:43.396Z,53.74
2019-03-25T12:55:51.902Z,53.37
2019-03-25T12:59:00.333Z,53.44
2019-03-25T13:02:09.762Z,51.87
2019-03-25T13:05:18.177Z,52.60
2019-03-25T13:08:33.027Z,51.58
2019-03-25T13:11:36.842Z,52.14
2019-03-25T13:14:45.133Z,53.87
2019-03-25T13:17:54.017Z,55.18
2019-03-25T13:21:02.564Z,56.12
2019-03-25T13:24:11.192Z,54.58
2019-03-25T13:27:19.972Z,57.06
2019-03-25T13:30:28.944Z,54.77
2019-03-25T13:33:37.712Z,55.23
2019-03-25T13:36:45.926Z,53.84
2019-03-25T13:39:54.012Z,54.10
2019-03-25T13:43:02.958Z,56.07
2019-03-25T13:46:11.162Z,57.85
2019-03-25T13:49:19.176Z,60.41
2019-03-25T13:52:27.700Z,62.28
2019-03-25T13:55:36.148Z,65.29
2019-03-25T13:59:04.179Z,66.08
2019-03-25T14:02:12.589Z,65.41
2019-03-25T14:05:20.898Z,64.34
2019-03-25T14:08:29.410Z,63.80
2019-03-25T14:11:38.040Z,62.72
2019-03-25T14:14:46.933Z,64.61
2019-03-25T14:17:55.388Z,64.51
2019-03-25T14:21:03.925Z,63.69
2019-03-25T14:24:12.204Z,64.09
2019-03-25T14:27:20.422Z,62.91
2019-03-25T14:30:29.282Z,63.50
2019-03-25T14:33:38.057Z,64.95
2019-03-25T14:36:46.433Z,68.59
2019-03-25T14:39:54.637Z,69.82
2019-03-25T14:43:02.846Z,71.28
2019-03-25T14:46:11.242Z,72.19
2019-03-25T14:49:19.437Z,73.66
2019-03-25T14:52:28.279Z,73.64
2019-03-25T14:55:36.526Z,71.12
2019-03-25T14:58:45.277Z,70.52
2019-03-25T15:01:53.854Z,71.63
2019-03-25T15:05:02.265Z,76.97
2019-03-25T15:08:10.879Z,80.21
2019-03-25T15:11:19.177Z,83.05
2019-03-25T15:14:27.541Z,87.46
2019-03-25T15:17:36.162Z,97.65
2019-03-25T15:20:44.658Z,100.00
2019-03-25T15:23:53.850Z,100.00
2019-03-25T15:27:03.800Z,100.00
2019-03-25T15:30:13.279Z,99.37
2019-03-25T15:33:22.078Z,100.00
2019-03-25T15:36:31.010Z,99.74
2019-03-25T15:39:46.737Z,99.74
2019-03-25T15:42:51.258Z,98.32
2019-03-25T15:46:00.370Z,97.32
2019-03-25T15:49:09.030Z,94.38
2019-03-25T15:52:17.743Z,91.91
2019-03-25T15:55:26.706Z,89.23
2019-03-25T15:58:35.299Z,88.19
2019-03-25T16:01:43.945Z,87.86
2019-03-25T16:04:52.546Z,89.38
2019-03-25T16:08:01.279Z,88.67
2019-03-25T16:11:09.902Z,87.20
2019-03-25T16:14:18.507Z,86.40
2019-03-25T16:17:26.706Z,86.83
2019-03-25T16:20:35.059Z,86.21
2019-03-25T16:23:43.528Z,85.96
2019-03-25T16:26:52.432Z,87.26
2019-03-25T16:30:00.914Z,88.66
2019-03-25T16:33:09.214Z,88.13
2019-03-25T16:36:17.514Z,88.61
2019-03-25T16:39:26.594Z,88.13
2019-03-25T16:42:40.143Z,88.29
2019-03-25T16:45:52.415Z,87.70
2019-03-25T16:49:04.293Z,89.18
2019-03-25T16:52:13.061Z,90.03
2019-03-25T16:55:21.882Z,92.84
2019-03-25T16:58:30.194Z,95.89
2019-03-25T17:01:39.118Z,98.22
2019-03-25T17:04:47.352Z,100.00
2019-03-25T17:07:56.057Z,100.00
2019-03-25T17:11:05.489Z,100.00
2019-03-25T17:14:16.498Z,100.00
2019-03-25T17:17:24.958Z,100.00
2019-03-25T17:20:33.572Z,100.00
2019-03-25T17:23:42.360Z,100.00
2019-03-25T17:26:50.855Z,100.00
2019-03-25T17:30:00.524Z,100.00
2019-03-25T17:33:12.105Z,100.00
2019-03-25T17:36:23.830Z,100.00
2019-03-25T17:39:32.630Z,100.00
2019-03-25T17:42:42.891Z,100.00
2019-03-25T17:45:51.735Z,100.00
2019-03-25T17:49:00.392Z,100.00
2019-03-25T17:52:10.489Z,100.00
2019-03-25T17:55:19.288Z,100.00
2019-03-25T17:58:28.840Z,100.00
2019-03-25T18:01:38.385Z,100.00
2019-03-25T18:04:47.527Z,100.00
2019-03-25T18:07:56.472Z,100.00
2019-03-25T18:11:05.154Z,100.00
2019-03-25T18:14:14.578Z,100.00
2019-03-25T18:17:24.345Z,100.00
2019-03-25T18:20:32.965Z,100.00
2019-03-25T18:23:43.002Z,100.00
2019-03-25T18:26:52.567Z,100.00
2019-03-25T18:30:01.128Z,100.00
2019-03-25T18:33:09.419Z,100.00
2019-03-25T18:36:17.786Z,100.00
2019-03-25T18:39:26.585Z,100.00
2019-03-25T18:42:35.221Z,100.00
2019-03-25T18:45:43.603Z,100.00
2019-03-25T18:48:51.950Z,100.00
2019-03-25T18:52:00.344Z,100.00
2019-03-25T18:55:08.931Z,100.00
2019-03-25T18:58:17.229Z,99.74
2019-03-25T19:01:26.036Z,100.00
2019-03-25T19:04:34.563Z,100.00
2019-03-25T19:07:45.557Z,100.00
2019-03-25T19:10:53.744Z,100.00
2019-03-25T19:14:01.980Z,100.00
2019-03-25T19:17:10.171Z,100.00
2019-03-25T19:20:18.352Z,100.00
2019-03-25T19:23:26.578Z,100.00
2019-03-25T19:26:34.777Z,100.00
2019-03-25T19:29:43.194Z,100.00
2019-03-25T19:32:51.414Z,100.00
2019-03-25T19:36:00.125Z,100.00
2019-03-25T19:39:08.767Z,100.00
2019-03-25T19:42:16.966Z,100.00
2019-03-25T19:45:25.328Z,100.00
2019-03-25T19:48:33.860Z,100.00
2019-03-25T19:51:42.349Z,100.00
2019-03-25T19:54:52.695Z,100.00
2019-03-25T19:58:02.851Z,100.00
2019-03-25T20:01:12.127Z,100.00
2019-03-25T20:04:21.125Z,100.00
2019-03-25T20:07:30.821Z,100.00
2019-03-25T20:10:39.982Z,100.00
2019-03-25T20:13:48.058Z,100.00
2019-03-25T20:16:56.702Z,100.00
2019-03-25T20:20:07.391Z,100.00
2019-03-25T20:23:16.445Z,100.00
2019-03-25T20:26:26.529Z,100.00
2019-03-25T20:29:34.948Z,100.00
2019-03-25T20:32:44.087Z,100.00
2019-03-25T20:35:52.236Z,100.00
2019-03-25T20:39:00.999Z,100.00
2019-03-25T20:42:09.567Z,100.00
2019-03-25T20:45:18.473Z,100.00
2019-03-25T20:48:27.966Z,100.00
2019-03-25T20:51:36.420Z,100.00
2019-03-25T20:54:45.694Z,100.00
2019-03-25T20:57:54.457Z,100.00
2019-03-25T21:01:02.833Z,100.00
2019-03-25T21:04:11.142Z,100.00
2019-03-25T21:07:19.917Z,100.00
2019-03-25T21:10:28.268Z,100.00
2019-03-25T21:13:37.334Z,100.00
2019-03-25T21:16:46.251Z,100.00
2019-03-25T21:19:55.327Z,100.00
2019-03-25T21:23:03.605Z,100.00
2019-03-25T21:26:11.991Z,100.00
2019-03-25T21:29:20.520Z,100.00
2019-03-25T21:32:28.847Z,100.00
2019-03-25T21:35:37.233Z,100.00
2019-03-25T21:38:45.865Z,100.00
2019-03-25T21:41:54.684Z,100.00
2019-03-25T21:45:03.647Z,100.00
2019-03-25T21:48:12.788Z,100.00
2019-03-25T21:51:21.191Z,100.00
2019-03-25T21:54:29.387Z,100.00
2019-03-25T21:57:38.065Z,100.00
2019-03-25T22:00:46.385Z,100.00
2019-03-25T22:03:54.463Z,100.00
2019-03-25T22:07:02.642Z,100.00
2019-03-25T22:10:11.431Z,100.00
2019-03-25T22:13:20.004Z,100.00
2019-03-25T22:16:28.459Z,100.00
2019-03-25T22:19:37.077Z,100.00
2019-03-25T22:22:45.411Z,100.00
2019-03-25T22:25:53.697Z,100.00
2019-03-25T22:29:02.012Z,100.00
2019-03-25T22:32:10.439Z,100.00
2019-03-25T22:35:19.061Z,100.00
2019-03-25T22:38:27.717Z,100.00
2019-03-25T22:41:36.412Z,100.00
2019-03-25T22:44:45.041Z,100.00
2019-03-25T22:47:53.754Z,100.00
2019-03-25T22:51:02.624Z,100.00
2019-03-25T22:54:11.002Z,100.00
2019-03-25T22:57:19.522Z,100.00
2019-03-25T23:00:38.411Z,100.00
2019-03-25T23:03:46.686Z,100.00
2019-03-25T23:06:54.925Z,100.00
2019-03-25T23:10:04.172Z,100.00
2019-03-25T23:13:12.669Z,100.00
2019-03-25T23:16:20.882Z,100.00
2019-03-25T23:19:28.980Z,100.00
2019-03-25T23:22:37.510Z,100.00
2019-03-25T23:25:45.757Z,100.00
2019-03-25T23:28:53.957Z,100.00
2019-03-25T23:32:02.361Z,100.00
2019-03-25T23:35:10.727Z,100.00
2019-03-25T23:38:18.927Z,100.00
2019-03-25T23:41:27.034Z,100.00
2019-03-25T23:44:35.313Z,100.00
2019-03-25T23:47:43.426Z,100.00
2019-03-25T23:50:51.625Z,100.00
2019-03-25T23:54:13.700Z,100.00
2019-03-25T23:57:21.826Z,100.00
